sensor_id;sensor_type;location;lat;lon;timestamp;P1;durP1;ratioP1;P2;durP2;ratioP2
52102;SDS011;38101;53.126;6.878;2024-01-30T15:54:45;5.53;;;3.30;;
52102;SDS011;38101;53.126;6.878;2024-01-30T15:57:11;5.38;;;3.83;;
52102;SDS011;38101;53.126;6.878;2024-01-30T15:59:37;4.90;;;3.38;;
52102;SDS011;38101;53.126;6.878;2024-01-30T16:02:03;6.22;;;4.15;;
52102;SDS011;38101;53.126;6.878;2024-01-30T16:04:28;5.38;;;4.13;;
52102;SDS011;38101;53.126;6.878;2024-01-30T16:06:54;5.40;;;3.67;;
52102;SDS011;38101;53.126;6.878;2024-01-30T16:09:22;5.45;;;3.20;;
52102;SDS011;38101;53.126;6.878;2024-01-30T16:11:48;6.07;;;4.03;;
52102;SDS011;38101;53.126;6.878;2024-01-30T16:14:14;6.60;;;4.10;;
52102;SDS011;38101;53.126;6.878;2024-01-30T16:16:40;5.45;;;3.88;;
52102;SDS011;38101;53.126;6.878;2024-01-30T16:19:06;5.40;;;3.83;;
52102;SDS011;38101;53.126;6.878;2024-01-30T16:21:31;5.68;;;3.90;;
52102;SDS011;38101;53.126;6.878;2024-01-30T16:23:57;5.55;;;3.53;;
52102;SDS011;38101;53.126;6.878;2024-01-30T16:26:23;6.63;;;3.70;;
52102;SDS011;38101;53.126;6.878;2024-01-30T16:28:50;4.43;;;3.42;;
52102;SDS011;38101;53.126;6.878;2024-01-30T16:31:15;5.20;;;3.72;;
52102;SDS011;38101;53.126;6.878;2024-01-30T16:33:45;5.28;;;3.40;;
52102;SDS011;38101;53.126;6.878;2024-01-30T16:36:14;5.07;;;3.47;;
52102;SDS011;38101;53.126;6.878;2024-01-30T16:38:41;4.72;;;3.72;;
52102;SDS011;38101;53.126;6.878;2024-01-30T16:41:07;4.88;;;3.45;;
52102;SDS011;38101;53.126;6.878;2024-01-30T16:43:33;4.65;;;3.20;;
52102;SDS011;38101;53.126;6.878;2024-01-30T16:45:58;5.03;;;3.33;;
52102;SDS011;38101;53.126;6.878;2024-01-30T16:48:26;5.78;;;3.30;;
52102;SDS011;38101;53.126;6.878;2024-01-30T16:50:52;4.50;;;3.13;;
52102;SDS011;38101;53.126;6.878;2024-01-30T16:53:17;5.18;;;3.35;;
52102;SDS011;38101;53.126;6.878;2024-01-30T16:55:43;6.20;;;3.70;;
52102;SDS011;38101;53.126;6.878;2024-01-30T16:58:09;6.00;;;3.92;;
52102;SDS011;38101;53.126;6.878;2024-01-30T17:00:36;6.95;;;3.95;;
52102;SDS011;38101;53.126;6.878;2024-01-30T17:03:02;5.60;;;3.85;;
52102;SDS011;38101;53.126;6.878;2024-01-30T17:05:28;5.72;;;3.25;;
52102;SDS011;38101;53.126;6.878;2024-01-30T17:07:55;3.97;;;2.90;;
52102;SDS011;38101;53.126;6.878;2024-01-30T17:10:20;5.15;;;2.80;;
52102;SDS011;38101;53.126;6.878;2024-01-30T17:12:46;4.28;;;2.97;;
52102;SDS011;38101;53.126;6.878;2024-01-30T17:15:11;6.22;;;2.97;;
52102;SDS011;38101;53.126;6.878;2024-01-30T17:17:37;3.85;;;2.47;;
52102;SDS011;38101;53.126;6.878;2024-01-30T17:20:03;4.55;;;2.50;;
52102;SDS011;38101;53.126;6.878;2024-01-30T17:22:29;4.22;;;2.13;;
52102;SDS011;38101;53.126;6.878;2024-01-30T17:24:55;4.28;;;2.28;;
52102;SDS011;38101;53.126;6.878;2024-01-30T17:27:22;4.47;;;2.55;;
52102;SDS011;38101;53.126;6.878;2024-01-30T17:29:47;4.53;;;2.55;;
52102;SDS011;38101;53.126;6.878;2024-01-30T17:32:13;5.22;;;2.30;;
52102;SDS011;38101;53.126;6.878;2024-01-30T17:34:39;4.65;;;2.63;;
52102;SDS011;38101;53.126;6.878;2024-01-30T17:37:05;6.82;;;2.50;;
52102;SDS011;38101;53.126;6.878;2024-01-30T17:39:30;4.75;;;2.20;;
52102;SDS011;38101;53.126;6.878;2024-01-30T17:41:56;5.25;;;2.60;;
52102;SDS011;38101;53.126;6.878;2024-01-30T17:44:22;4.65;;;2.25;;
52102;SDS011;38101;53.126;6.878;2024-01-30T17:46:49;6.25;;;2.60;;
52102;SDS011;38101;53.126;6.878;2024-01-30T17:49:15;4.65;;;1.98;;
52102;SDS011;38101;53.126;6.878;2024-01-30T17:51:41;7.43;;;2.30;;
52102;SDS011;38101;53.126;6.878;2024-01-30T17:54:07;5.90;;;2.53;;
52102;SDS011;38101;53.126;6.878;2024-01-30T17:56:33;4.20;;;2.20;;
52102;SDS011;38101;53.126;6.878;2024-01-30T17:58:59;5.82;;;2.42;;
52102;SDS011;38101;53.126;6.878;2024-01-30T18:01:25;4.78;;;2.35;;
52102;SDS011;38101;53.126;6.878;2024-01-30T18:03:50;6.55;;;2.15;;
52102;SDS011;38101;53.126;6.878;2024-01-30T18:06:20;4.57;;;2.45;;
52102;SDS011;38101;53.126;6.878;2024-01-30T18:08:48;6.55;;;3.70;;
52102;SDS011;38101;53.126;6.878;2024-01-30T18:11:14;6.63;;;3.10;;
52102;SDS011;38101;53.126;6.878;2024-01-30T18:13:40;7.65;;;2.80;;
52102;SDS011;38101;53.126;6.878;2024-01-30T18:16:06;8.85;;;3.50;;
52102;SDS011;38101;53.126;6.878;2024-01-30T18:18:32;6.93;;;3.67;;
52102;SDS011;38101;53.126;6.878;2024-01-30T18:20:58;7.93;;;3.70;;
52102;SDS011;38101;53.126;6.878;2024-01-30T18:23:24;9.95;;;3.72;;
52102;SDS011;38101;53.126;6.878;2024-01-30T18:25:50;9.98;;;3.92;;
52102;SDS011;38101;53.126;6.878;2024-01-30T18:28:24;7.47;;;3.63;;
52102;SDS011;38101;53.126;6.878;2024-01-30T18:30:50;10.40;;;4.00;;
52102;SDS011;38101;53.126;6.878;2024-01-30T18:33:16;9.13;;;4.05;;
52102;SDS011;38101;53.126;6.878;2024-01-30T18:35:43;12.38;;;4.05;;
52102;SDS011;38101;53.126;6.878;2024-01-30T18:38:08;12.77;;;3.75;;
52102;SDS011;38101;53.126;6.878;2024-01-30T18:40:34;10.48;;;3.72;;
52102;SDS011;38101;53.126;6.878;2024-01-30T18:43:00;11.63;;;3.63;;
52102;SDS011;38101;53.126;6.878;2024-01-30T18:45:29;7.32;;;3.20;;
52102;SDS011;38101;53.126;6.878;2024-01-30T18:47:55;6.38;;;2.95;;
52102;SDS011;38101;53.126;6.878;2024-01-30T18:50:21;10.70;;;2.83;;
52102;SDS011;38101;53.126;6.878;2024-01-30T18:52:46;7.82;;;2.90;;
52102;SDS011;38101;53.126;6.878;2024-01-30T18:55:12;6.90;;;2.40;;
52102;SDS011;38101;53.126;6.878;2024-01-30T18:57:38;10.32;;;3.30;;
52102;SDS011;38101;53.126;6.878;2024-01-30T19:00:04;6.82;;;2.55;;
52102;SDS011;38101;53.126;6.878;2024-01-30T19:02:30;6.75;;;2.60;;
52102;SDS011;38101;53.126;6.878;2024-01-30T19:04:55;6.68;;;2.08;;
52102;SDS011;38101;53.126;6.878;2024-01-30T19:07:23;11.68;;;2.75;;
52102;SDS011;38101;53.126;6.878;2024-01-30T19:09:49;7.03;;;2.40;;
52102;SDS011;38101;53.126;6.878;2024-01-30T19:12:17;5.00;;;2.00;;
52102;SDS011;38101;53.126;6.878;2024-01-30T19:14:43;8.15;;;2.30;;
52102;SDS011;38101;53.126;6.878;2024-01-30T19:17:08;10.20;;;3.75;;
52102;SDS011;38101;53.126;6.878;2024-01-30T19:19:34;8.65;;;2.22;;
52102;SDS011;38101;53.126;6.878;2024-01-30T19:22:00;7.85;;;2.50;;
52102;SDS011;38101;53.126;6.878;2024-01-30T19:24:25;9.88;;;2.40;;
52102;SDS011;38101;53.126;6.878;2024-01-30T19:26:51;5.55;;;2.10;;
52102;SDS011;38101;53.126;6.878;2024-01-30T19:29:17;9.82;;;2.47;;
52102;SDS011;38101;53.126;6.878;2024-01-30T19:31:45;6.65;;;2.10;;
52102;SDS011;38101;53.126;6.878;2024-01-30T19:34:12;9.40;;;2.33;;
52102;SDS011;38101;53.126;6.878;2024-01-30T19:36:37;10.35;;;2.60;;
52102;SDS011;38101;53.126;6.878;2024-01-30T19:39:05;11.85;;;2.90;;
52102;SDS011;38101;53.126;6.878;2024-01-30T19:41:38;9.40;;;2.50;;
52102;SDS011;38101;53.126;6.878;2024-01-30T19:44:10;10.00;;;2.80;;
52102;SDS011;38101;53.126;6.878;2024-01-30T19:46:35;8.95;;;2.88;;
52102;SDS011;38101;53.126;6.878;2024-01-30T19:49:02;7.15;;;2.40;;
52102;SDS011;38101;53.126;6.878;2024-01-30T19:51:28;8.45;;;3.03;;
52102;SDS011;38101;53.126;6.878;2024-01-30T19:53:54;8.63;;;2.60;;
52102;SDS011;38101;53.126;6.878;2024-01-30T19:56:20;7.40;;;2.40;;
52102;SDS011;38101;53.126;6.878;2024-01-30T19:58:47;12.18;;;3.05;;
52102;SDS011;38101;53.126;6.878;2024-01-30T20:01:12;12.05;;;4.55;;
52102;SDS011;38101;53.126;6.878;2024-01-30T20:03:39;9.73;;;2.65;;
52102;SDS011;38101;53.126;6.878;2024-01-30T20:06:04;11.85;;;3.28;;
52102;SDS011;38101;53.126;6.878;2024-01-30T20:08:30;12.00;;;2.92;;
52102;SDS011;38101;53.126;6.878;2024-01-30T20:10:59;11.02;;;3.38;;
52102;SDS011;38101;53.126;6.878;2024-01-30T20:13:25;12.38;;;3.40;;
52102;SDS011;38101;53.126;6.878;2024-01-30T20:15:51;15.48;;;3.88;;
